ADDS METAR Data INFO
IDs: Format: Raw Decoded Include TAF

Data at: 0920 UTC 13 Dec 2017

KMOB 130856Z AUTO 33004KT 10SM CLR 03/M01 A3015 RMK AO2 SLP210 T00281011 53001
KMOB 130756Z AUTO 34003KT 10SM CLR 04/M01 A3015 RMK AO2 SLP208 T00391006
KMOB 130656Z AUTO 33005KT 10SM CLR 04/M01 A3015 RMK AO2 SLP208 T00441006
KMOB 130556Z AUTO 34007KT 10SM CLR 06/00 A3015 RMK AO2 SLP209 T00560000 10106 20056 401610056 50003
KMOB 130456Z 33006KT 10SM CLR 06/00 A3015 RMK AO2 SLP210 T00610000
KMOB 130356Z 32005KT 10SM CLR 07/01 A3015 RMK AO2 SLP210 T00720006
KMOB 130256Z 32005KT 10SM CLR 08/01 A3014 RMK AO2 SLP206 T00830011 51009
KMOB 130156Z 31004KT 10SM CLR 08/01 A3014 RMK AO2 SLP204 T00780011
KMOB 130056Z 31003KT 10SM CLR 08/02 A3013 RMK AO2 SLP201 T00780017
KMOB 122356Z 31004KT 10SM CLR 11/02 A3012 RMK AO2 SLP198 T01060017 10161 20106 53016
KMOB 122256Z 31006KT 10SM CLR 13/01 A3009 RMK AO2 SLP188 T01280006
KMOB 122156Z 31007KT 10SM CLR 15/01 A3007 RMK AO2 SLP180 T01500006
KMOB 122056Z 33010KT 10SM CLR 16/01 A3007 RMK AO2 SLP181 T01610011 55011
KMOB 121956Z 31007G16KT 10SM CLR 16/01 A3007 RMK AO2 SLP179 T01610006
KMOB 121856Z 34013G20KT 10SM CLR 16/M01 A3007 RMK AO2 SLP182 T01611006
KMOB 121756Z 35015G21KT 10SM CLR 16/01 A3010 RMK AO2 SLP192 T01560006 10156 20078 58013
KMOB 121656Z 35014G22KT 10SM FEW200 14/01 A3013 RMK AO2 SLP200 T01440006
KMOB 121556Z 34015G20KT 10SM FEW200 14/01 A3014 RMK AO2 SLP206 T01390011
KMOB 121456Z 33008KT 10SM FEW200 12/03 A3014 RMK AO2 SLP206 T01170028 51030
KMOB 121356Z 32007KT 10SM FEW200 09/03 A3011 RMK AO2 SLP196 T00940033
KMOB 121256Z 31005KT 10SM FEW200 08/04 A3008 RMK AO2 SLP187 T00780044
KMOB 121156Z 29005KT 10SM CLR 08/04 A3005 RMK AO2 SLP175 T00780044 10106 20072 53004
KMOB 121056Z AUTO 28004KT 10SM CLR 08/05 A3003 RMK AO2 SLP169 T00780050
KMOB 120956Z AUTO 26007KT 10SM CLR 09/06 A3003 RMK AO2 SLP166 T00890056
KMOB 120856Z AUTO 23007KT 10SM CLR 09/06 A3004 RMK AO2 SLP169 T00940061 56014
KMOB 120756Z AUTO 24006KT 10SM CLR 09/06 A3004 RMK AO2 SLP170 T00940061
KMOB 120656Z AUTO 23006KT 10SM CLR 10/07 A3006 RMK AO2 SLP179 T01000067
KMOB 120556Z AUTO 25004KT 10SM CLR 10/07 A3008 RMK AO2 SLP183 T01000072 10117 20100 401940006 58012
KMOB 120456Z 23006KT 10SM CLR 11/07 A3009 RMK AO2 SLP189 T01060072
KMOB 120356Z 23007KT 10SM CLR 10/07 A3012 RMK AO2 SLP197 T01000072
KMOB 120256Z 22007KT 10SM CLR 10/08 A3011 RMK AO2 SLP197 T01000078 56008
KMOB 120156Z 23006KT 10SM CLR 11/07 A3012 RMK AO2 SLP198 T01060072
KMOB 120056Z 21010KT 10SM FEW250 11/07 A3012 RMK AO2 SLP197 T01110072
KMOB 112356Z 21009KT 10SM SCT250 12/07 A3014 RMK AO2 SLP205 T01170067 10194 20117 53000
KMOB 112256Z 22006KT 10SM BKN250 13/06 A3013 RMK AO2 SLP201 T01330061
KMOB 112156Z 22010KT 10SM BKN250 16/07 A3013 RMK AO2 SLP202 T01610067